Fort Loramie, Ohio
Current Conditions -  °F | °C
As of 7:33 AM on Monday 24 Nov 2014 (Local Time) from KAXV Reporting Station
Light Rain Light Rain  
Wind Chill: 59°   Ceiling: 1500
Heat Index: 59°   Visibility: 10mi
Dew Point: 55°   Wind: 22mph
Humidity: 88%   Direction: 190°S
Pressure: 29.21"   Gusts: 29mph
Location:  40.35°N, 84.37°W
Report Text: KAXV 241233Z AUTO 19019G25KT 10SM -RA BKN015 OVC022 15/13 A2921 RMK AO2 LTG DSNT SW THRU NW
Loading
Personal Weather Stations






























Interactive Weather Map New forecast layout! Learn more

10-Day Weather Forecast

Advertisements
Track Severe Weather on mobile